Time;durP1;ratioP1;P1;durP2;ratioP2;P2;SDS_P1;SDS_P2;PMS_P1;PMS_P2;Temp;Humidity;BMP_temperature;BMP_pressure;BME280_temperature;BME280_humidity;BME280_pressure;Samples;Min_cycle;Max_cycle;Signal;HPM_P1;HPM_P2
2021/06/24 00:05:44;;;;;;;;;29.25;23.25;;;;;;;;8974631;39;11037;-57
2021/06/24 00:11:46;;;;;;;;;25.25;21.25;;;;;;;;8974589;39;10432;-58
2021/06/24 00:17:48;;;;;;;;;20.00;18.25;;;;;;;;8976173;39;10331;-58
2021/06/24 00:23:50;;;;;;;;;17.25;15.50;;;;;;;;8999478;39;10270;-58
2021/06/24 00:29:52;;;;;;;;;17.50;15.25;;;;;;;;9000126;39;10307;-58
2021/06/24 00:35:54;;;;;;;;;20.75;17.75;;;;;;;;9000003;39;10358;-58
2021/06/24 00:41:57;;;;;;;;;16.00;16.00;;;;;;;;9000220;39;10439;-58
2021/06/24 00:47:59;;;;;;;;;16.75;16.75;;;;;;;;8989748;39;10334;-58
2021/06/24 00:54:01;;;;;;;;;18.75;17.25;;;;;;;;8988517;39;10329;-59
2021/06/24 01:00:07;;;;;;;;;18.50;18.25;;;;;;;;8997860;39;10630;-59
2021/06/24 01:06:09;;;;;;;;;18.75;17.00;;;;;;;;8999760;39;10460;-58
2021/06/24 01:12:12;;;;;;;;;18.50;15.50;;;;;;;;8984209;39;10521;-58
2021/06/24 01:18:14;;;;;;;;;19.50;17.50;;;;;;;;8972139;39;10334;-58
2021/06/24 01:24:18;;;;;;;;;17.50;16.00;;;;;;;;8972722;39;10338;-58
2021/06/24 01:30:21;;;;;;;;;22.00;19.25;;;;;;;;8972031;39;10504;-58
2021/06/24 01:36:28;;;;;;;;;18.00;17.00;;;;;;;;8976346;39;10495;-58
2021/06/24 01:42:33;;;;;;;;;17.75;17.50;;;;;;;;8974993;39;10653;-57
2021/06/24 01:48:35;;;;;;;;;21.25;21.25;;;;;;;;8975194;39;10504;-57
2021/06/24 01:54:44;;;;;;;;;23.50;22.00;;;;;;;;8976583;39;10676;-57
2021/06/24 02:00:47;;;;;;;;;30.25;24.25;;;;;;;;8977008;39;10654;-57
2021/06/24 02:06:55;;;;;;;;;20.75;19.50;;;;;;;;8975058;39;10726;-60
2021/06/24 02:13:17;;;;;;;;;30.00;27.50;;;;;;;;8976045;39;11638;-58
2021/06/24 02:19:19;;;;;;;;;28.50;25.00;;;;;;;;8975255;39;10826;-58
2021/06/24 02:25:40;;;;;;;;;29.25;28.00;;;;;;;;8976139;39;10636;-57
2021/06/24 02:32:02;;;;;;;;;35.50;29.25;;;;;;;;8975977;39;10728;-58
2021/06/24 02:38:27;;;;;;;;;32.33;31.67;;;;;;;;8972810;39;10699;-58
2021/06/24 02:44:33;;;;;;;;;32.25;29.25;;;;;;;;8974147;39;10991;-58
2021/06/24 02:50:36;;;;;;;;;31.25;28.50;;;;;;;;8974892;39;10644;-58
2021/06/24 02:56:44;;;;;;;;;34.00;32.75;;;;;;;;8976634;39;11160;-58
2021/06/24 03:03:05;;;;;;;;;27.50;25.25;;;;;;;;8963352;39;10690;-57
2021/06/24 03:09:21;;;;;;;;;27.50;27.50;;;;;;;;8974174;39;10628;-58
2021/06/24 03:15:25;;;;;;;;;28.25;27.25;;;;;;;;8976315;39;10724;-58
2021/06/24 03:21:28;;;;;;;;;28.25;26.50;;;;;;;;8983163;39;11234;-57
2021/06/24 03:27:30;;;;;;;;;27.25;26.00;;;;;;;;8974503;39;11425;-58
2021/06/24 03:33:53;;;;;;;;;30.50;29.00;;;;;;;;8972729;39;10634;-58
2021/06/24 03:39:55;;;;;;;;;33.50;29.50;;;;;;;;8982231;39;10603;-58
2021/06/24 03:45:57;;;;;;;;;34.00;31.75;;;;;;;;8975635;39;10641;-57
2021/06/24 03:52:06;;;;;;;;;32.00;32.00;;;;;;;;8982063;39;10632;-59
2021/06/24 03:58:11;;;;;;;;;34.00;31.25;;;;;;;;8974167;39;10526;-58
2021/06/24 04:04:14;;;;;;;;;27.00;26.25;;;;;;;;9946897;22;10412;-61
2021/06/24 04:10:29;;;;;;;;;34.00;31.00;;;;;;;;8899062;40;10640;-61
2021/06/24 04:16:32;;;;;;;;;34.25;34.25;;;;;;;;8896528;40;10580;-61
2021/06/24 04:22:36;;;;;;;;;38.50;33.75;;;;;;;;8868374;40;10537;-61
2021/06/24 04:29:02;;;;;;;;;35.50;32.00;;;;;;;;8876242;40;10634;-60
2021/06/24 04:35:05;;;;;;;;;38.00;29.50;;;;;;;;8871817;40;10358;-62
2021/06/24 04:41:08;;;;;;;;;36.00;32.75;;;;;;;;8881034;40;10595;-60
2021/06/24 04:47:37;;;;;;;;;36.25;30.25;;;;;;;;8877784;40;10352;-62
2021/06/24 04:53:39;;;;;;;;;31.50;29.25;;;;;;;;8898167;40;10230;-60
2021/06/24 04:59:47;;;;;;;;;35.50;30.00;;;;;;;;8889620;40;10516;-61
2021/06/24 05:06:09;;;;;;;;;32.75;29.00;;;;;;;;8914298;39;10214;-62
2021/06/24 05:12:12;;;;;;;;;37.00;31.25;;;;;;;;8908953;40;10366;-62
2021/06/24 05:18:15;;;;;;;;;25.75;25.00;;;;;;;;8926903;40;10317;-62
2021/06/24 05:24:17;;;;;;;;;27.00;25.50;;;;;;;;8925833;40;10288;-61
2021/06/24 05:30:19;;;;;;;;;34.75;30.75;;;;;;;;8902227;40;10542;-62
2021/06/24 05:36:21;;;;;;;;;37.75;31.75;;;;;;;;8920366;39;10885;-61
2021/06/24 05:42:23;;;;;;;;;29.25;25.50;;;;;;;;8922702;39;10962;-63
2021/06/24 05:48:25;;;;;;;;;29.25;26.50;;;;;;;;8907785;39;10291;-62
2021/06/24 05:54:27;;;;;;;;;28.25;27.75;;;;;;;;8914909;40;10241;-62
2021/06/24 06:00:29;;;;;;;;;29.25;29.00;;;;;;;;8899317;40;10463;-61
2021/06/24 06:06:32;;;;;;;;;28.75;27.00;;;;;;;;8911012;39;10839;-63
2021/06/24 06:12:34;;;;;;;;;37.00;30.25;;;;;;;;8921413;39;10420;-62
2021/06/24 06:18:36;;;;;;;;;32.25;31.50;;;;;;;;8907144;40;10366;-62
2021/06/24 06:24:41;;;;;;;;;22.75;22.75;;;;;;;;8905836;40;10282;-64
2021/06/24 06:30:43;;;;;;;;;23.75;21.75;;;;;;;;8914983;40;10496;-61
2021/06/24 06:36:45;;;;;;;;;24.50;23.00;;;;;;;;8916086;40;10597;-61
2021/06/24 06:42:48;;;;;;;;;24.75;23.75;;;;;;;;8908650;39;10346;-62
2021/06/24 06:48:50;;;;;;;;;26.25;24.75;;;;;;;;8909353;40;10480;-62
2021/06/24 06:54:52;;;;;;;;;31.00;29.50;;;;;;;;8909567;40;10242;-63
2021/06/24 07:00:54;;;;;;;;;28.75;27.50;;;;;;;;8914210;40;10989;-63
2021/06/24 07:06:56;;;;;;;;;24.75;24.25;;;;;;;;8904040;40;10274;-63
2021/06/24 07:13:01;;;;;;;;;24.25;24.25;;;;;;;;8912435;40;10292;-63
2021/06/24 07:19:04;;;;;;;;;25.00;24.00;;;;;;;;8904986;40;10886;-62
2021/06/24 07:25:08;;;;;;;;;29.00;25.25;;;;;;;;8903284;40;10306;-63
2021/06/24 07:31:10;;;;;;;;;39.00;35.75;;;;;;;;8876878;40;10347;-63
2021/06/24 07:37:12;;;;;;;;;26.75;24.25;;;;;;;;8912930;40;10329;-64
2021/06/24 07:43:14;;;;;;;;;18.75;15.75;;;;;;;;8912205;39;10596;-63
2021/06/24 07:49:16;;;;;;;;;23.25;22.00;;;;;;;;8893855;40;10325;-63
2021/06/24 07:55:18;;;;;;;;;21.00;20.25;;;;;;;;8906779;40;10303;-62
2021/06/24 08:01:21;;;;;;;;;32.50;25.50;;;;;;;;8913197;40;10359;-64
2021/06/24 08:07:25;;;;;;;;;38.25;35.25;;;;;;;;8899380;40;10356;-63
2021/06/24 08:13:28;;;;;;;;;34.50;32.75;;;;;;;;8902317;40;10898;-61
2021/06/24 08:19:30;;;;;;;;;23.25;19.00;;;;;;;;8897318;40;10882;-62
2021/06/24 08:25:32;;;;;;;;;25.50;23.00;;;;;;;;8910917;40;10559;-65
2021/06/24 08:31:34;;;;;;;;;24.00;21.75;;;;;;;;8909963;40;10394;-63
2021/06/24 08:37:37;;;;;;;;;28.25;25.75;;;;;;;;8914942;40;10695;-63
2021/06/24 08:43:40;;;;;;;;;22.00;22.00;;;;;;;;8909240;39;10259;-63
2021/06/24 08:49:42;;;;;;;;;28.50;25.00;;;;;;;;8917163;40;10280;-68
2021/06/24 08:55:51;;;;;;;;;28.00;28.00;;;;;;;;8907012;40;10361;-63
2021/06/24 09:01:58;;;;;;;;;25.75;25.75;;;;;;;;8906807;40;10288;-63
2021/06/24 09:08:00;;;;;;;;;25.75;24.25;;;;;;;;8915286;40;10328;-62
2021/06/24 09:14:12;;;;;;;;;25.50;24.50;;;;;;;;8901159;40;10342;-62
2021/06/24 09:20:19;;;;;;;;;24.75;24.75;;;;;;;;8913852;40;10295;-64
2021/06/24 09:26:22;;;;;;;;;22.50;20.50;;;;;;;;8909695;40;10416;-64
2021/06/24 09:32:35;;;;;;;;;18.00;16.00;;;;;;;;8888223;40;10311;-62
2021/06/24 09:38:42;;;;;;;;;28.75;22.25;;;;;;;;8908241;40;10419;-64
2021/06/24 09:44:48;;;;;;;;;19.00;18.75;;;;;;;;8912897;39;10244;-63
2021/06/24 09:50:51;;;;;;;;;19.00;19.00;;;;;;;;8905233;40;10318;-63
2021/06/24 09:56:55;;;;;;;;;14.50;14.50;;;;;;;;8910585;40;10247;-62
2021/06/24 10:03:08;;;;;;;;;13.75;13.75;;;;;;;;8907572;40;10294;-64
2021/06/24 10:09:12;;;;;;;;;16.50;14.00;;;;;;;;8910619;40;10287;-63
2021/06/24 10:15:15;;;;;;;;;15.00;14.75;;;;;;;;8903236;40;10884;-62
2021/06/24 10:21:17;;;;;;;;;17.00;15.50;;;;;;;;8907326;40;10435;-64
2021/06/24 10:27:22;;;;;;;;;16.50;15.25;;;;;;;;8909453;40;10372;-63
2021/06/24 10:33:24;;;;;;;;;20.75;19.00;;;;;;;;8898744;40;10286;-64
2021/06/24 10:39:36;;;;;;;;;15.00;15.00;;;;;;;;8904823;39;10793;-62
2021/06/24 10:45:41;;;;;;;;;20.25;19.75;;;;;;;;8908006;40;10530;-64
2021/06/24 10:51:43;;;;;;;;;24.25;22.00;;;;;;;;8903081;40;10361;-64
2021/06/24 10:57:45;;;;;;;;;15.75;14.25;;;;;;;;8895577;40;10267;-62
2021/06/24 11:03:48;;;;;;;;;16.75;13.75;;;;;;;;8887468;39;10412;-64
2021/06/24 11:10:12;;;;;;;;;17.50;13.25;;;;;;;;8893617;40;10246;-64
2021/06/24 11:16:16;;;;;;;;;16.00;13.50;;;;;;;;8921662;40;10474;-63
2021/06/24 11:22:45;;;;;;;;;16.25;16.25;;;;;;;;8920920;40;10257;-62
2021/06/24 11:28:56;;;;;;;;;17.00;16.50;;;;;;;;8909864;40;10292;-63
2021/06/24 11:35:03;;;;;;;;;12.50;12.00;;;;;;;;8915288;40;10323;-65
2021/06/24 11:41:06;;;;;;;;;25.75;22.75;;;;;;;;8913965;39;10174;-63
2021/06/24 11:47:12;;;;;;;;;16.00;16.00;;;;;;;;8899531;40;10317;-64
2021/06/24 12:06:19;;;;;;;;;15.00;13.50;;;;;;;;8906604;40;10232;-68
2021/06/24 12:12:26;;;;;;;;;17.25;16.00;;;;;;;;8896195;40;10245;-65
2021/06/24 12:18:39;;;;;;;;;18.25;16.50;;;;;;;;8913352;39;10471;-64
2021/06/24 12:24:42;;;;;;;;;14.75;13.00;;;;;;;;8911678;40;10214;-64
2021/06/24 12:30:44;;;;;;;;;20.50;19.00;;;;;;;;8898877;40;10335;-68
2021/06/24 12:36:47;;;;;;;;;16.75;16.00;;;;;;;;8910365;40;10929;-65
2021/06/24 12:42:56;;;;;;;;;19.75;19.75;;;;;;;;8911163;39;10479;-65
2021/06/24 12:49:18;;;;;;;;;16.00;15.75;;;;;;;;8890933;40;10370;-66
2021/06/24 12:55:32;;;;;;;;;15.50;15.25;;;;;;;;8914453;40;10286;-64
2021/06/24 13:01:39;;;;;;;;;22.50;22.25;;;;;;;;8910512;40;10330;-62
2021/06/24 13:08:00;;;;;;;;;20.75;19.50;;;;;;;;8910644;40;10381;-65
2021/06/24 13:14:14;;;;;;;;;15.50;14.00;;;;;;;;8902896;40;10311;-63
2021/06/24 13:20:16;;;;;;;;;16.75;15.00;;;;;;;;8898648;40;10229;-63
2021/06/24 13:26:20;;;;;;;;;16.50;15.75;;;;;;;;8904485;39;10228;-65
2021/06/24 13:32:34;;;;;;;;;20.75;17.75;;;;;;;;8888456;40;11100;-62
2021/06/24 13:38:52;;;;;;;;;24.00;20.00;;;;;;;;8906927;40;10338;-63
2021/06/24 13:44:54;;;;;;;;;23.25;20.75;;;;;;;;8911770;40;10864;-64
2021/06/24 13:50:56;;;;;;;;;17.00;17.00;;;;;;;;8924862;40;10301;-61
2021/06/24 13:56:59;;;;;;;;;20.75;20.00;;;;;;;;8922065;40;10973;-62
2021/06/24 14:03:01;;;;;;;;;17.00;17.00;;;;;;;;8917086;40;10319;-63
2021/06/24 15:43:41;;;;;;;;;21.25;18.50;;;;;;;;8943561;39;1366104;-59
2021/06/24 15:49:43;;;;;;;;;23.00;17.25;;;;;;;;8994399;39;10381;-60
2021/06/24 15:55:49;;;;;;;;;15.75;15.75;;;;;;;;8995633;39;10297;-60
2021/06/24 16:01:51;;;;;;;;;21.00;17.75;;;;;;;;8993517;39;10610;-61
2021/06/24 16:07:53;;;;;;;;;19.50;19.50;;;;;;;;8997659;39;10503;-62
2021/06/24 16:13:55;;;;;;;;;19.50;17.75;;;;;;;;8997918;39;10348;-61
2021/06/24 16:19:57;;;;;;;;;17.50;17.00;;;;;;;;8993774;39;11002;-62
2021/06/24 16:25:59;;;;;;;;;16.00;16.00;;;;;;;;8995094;39;10754;-61
2021/06/24 16:32:05;;;;;;;;;21.00;18.75;;;;;;;;8977048;39;10382;-61
2021/06/24 16:38:08;;;;;;;;;19.50;17.25;;;;;;;;8968728;39;10714;-62
2021/06/24 16:44:10;;;;;;;;;20.50;17.25;;;;;;;;8953729;39;10483;-60
2021/06/24 16:50:13;;;;;;;;;23.75;20.75;;;;;;;;8950839;39;10401;-63
2021/06/24 16:56:14;;;;;;;;;21.75;19.50;;;;;;;;8952950;39;10287;-63
2021/06/24 17:02:16;;;;;;;;;17.75;16.00;;;;;;;;8951169;39;10308;-62
2021/06/24 17:08:18;;;;;;;;;22.00;20.75;;;;;;;;8941794;39;10341;-62
2021/06/24 17:14:20;;;;;;;;;19.00;18.00;;;;;;;;8951707;39;10891;-61
2021/06/24 17:20:23;;;;;;;;;21.50;20.00;;;;;;;;8951322;39;10328;-62
2021/06/24 17:26:26;;;;;;;;;22.50;21.75;;;;;;;;8951591;39;10333;-63
2021/06/24 17:32:28;;;;;;;;;20.50;20.50;;;;;;;;8950487;39;10377;-61
2021/06/24 17:38:30;;;;;;;;;30.00;27.50;;;;;;;;8950951;39;10322;-62
2021/06/24 17:44:33;;;;;;;;;22.50;18.75;;;;;;;;8951964;39;10387;-62
2021/06/24 17:50:35;;;;;;;;;20.75;19.00;;;;;;;;8940785;39;10891;-64
2021/06/24 17:56:37;;;;;;;;;23.25;23.25;;;;;;;;8950346;39;10432;-62
2021/06/24 18:02:39;;;;;;;;;29.00;25.00;;;;;;;;8949192;39;10437;-63
2021/06/24 18:08:43;;;;;;;;;30.25;28.50;;;;;;;;8960750;39;10278;-62
2021/06/24 18:14:45;;;;;;;;;23.00;22.50;;;;;;;;8950486;39;10398;-66
2021/06/24 18:20:47;;;;;;;;;24.75;22.00;;;;;;;;8941078;39;10369;-62
2021/06/24 18:26:49;;;;;;;;;27.75;27.75;;;;;;;;8950882;39;10452;-63
2021/06/24 18:32:51;;;;;;;;;37.25;33.75;;;;;;;;8950110;39;10545;-63
2021/06/24 18:38:53;;;;;;;;;26.75;26.50;;;;;;;;8933908;39;10338;-62
2021/06/24 18:44:55;;;;;;;;;29.50;28.50;;;;;;;;8924086;39;10463;-62
2021/06/24 18:50:58;;;;;;;;;26.25;26.00;;;;;;;;8924726;39;10392;-62
2021/06/24 18:57:00;;;;;;;;;26.25;25.00;;;;;;;;8875149;39;10573;-62
2021/06/24 19:03:04;;;;;;;;;31.25;29.75;;;;;;;;8898076;40;10694;-61
2021/06/24 19:09:06;;;;;;;;;37.25;34.75;;;;;;;;8878217;40;10583;-62
2021/06/24 19:15:10;;;;;;;;;34.00;29.00;;;;;;;;8875545;40;10520;-63
2021/06/24 19:21:13;;;;;;;;;31.75;28.00;;;;;;;;8889182;40;11009;-61
2021/06/24 19:27:15;;;;;;;;;36.00;31.75;;;;;;;;8881667;40;10513;-62
2021/06/24 19:33:17;;;;;;;;;31.50;29.50;;;;;;;;8873519;40;10546;-63
2021/06/24 19:39:20;;;;;;;;;36.00;34.50;;;;;;;;8873456;40;10764;-61
2021/06/24 19:45:22;;;;;;;;;37.75;33.50;;;;;;;;8873941;40;10663;-60
2021/06/24 19:51:25;;;;;;;;;34.75;34.75;;;;;;;;8873204;40;10487;-60
2021/06/24 19:57:28;;;;;;;;;37.50;35.25;;;;;;;;8874569;40;10536;-62
2021/06/24 20:03:30;;;;;;;;;32.75;29.50;;;;;;;;8883028;40;10518;-61
2021/06/24 20:09:32;;;;;;;;;38.25;33.75;;;;;;;;8877761;40;10848;-63
2021/06/24 20:15:34;;;;;;;;;34.50;34.50;;;;;;;;8885428;40;10720;-61
2021/06/24 20:21:36;;;;;;;;;36.00;35.50;;;;;;;;8901172;40;10475;-60
2021/06/24 20:27:38;;;;;;;;;40.25;35.50;;;;;;;;8901673;40;10426;-60
2021/06/24 20:33:40;;;;;;;;;34.75;33.75;;;;;;;;8888822;40;11016;-60
2021/06/24 20:39:42;;;;;;;;;33.75;32.00;;;;;;;;8876861;40;10564;-62
2021/06/24 20:45:45;;;;;;;;;33.50;32.25;;;;;;;;8876480;40;10522;-61
2021/06/24 20:51:47;;;;;;;;;33.25;31.25;;;;;;;;8877675;40;10564;-61
2021/06/24 20:57:52;;;;;;;;;40.75;36.00;;;;;;;;8882282;40;10451;-61
2021/06/24 21:03:54;;;;;;;;;39.25;32.00;;;;;;;;8900320;40;10577;-62
2021/06/24 21:09:56;;;;;;;;;39.00;35.50;;;;;;;;8899565;40;10431;-61
2021/06/24 21:15:58;;;;;;;;;38.25;36.00;;;;;;;;8874724;40;10593;-62
2021/06/24 21:22:00;;;;;;;;;41.25;38.25;;;;;;;;8875460;40;10482;-61
2021/06/24 21:28:02;;;;;;;;;36.00;33.00;;;;;;;;8876258;40;11185;-61
2021/06/24 21:34:04;;;;;;;;;37.50;35.00;;;;;;;;8875322;40;10513;-61
2021/06/24 21:40:06;;;;;;;;;36.00;32.50;;;;;;;;8877110;40;10441;-61
2021/06/24 21:46:09;;;;;;;;;36.25;35.50;;;;;;;;8876267;40;10981;-61
2021/06/24 21:52:11;;;;;;;;;39.25;38.00;;;;;;;;8874922;40;10618;-60
2021/06/24 21:58:14;;;;;;;;;42.50;39.25;;;;;;;;8876587;40;10512;-60
2021/06/24 22:04:17;;;;;;;;;44.25;39.00;;;;;;;;8895463;40;10574;-60
2021/06/24 22:10:19;;;;;;;;;42.00;37.75;;;;;;;;8383147;40;20002157;-61
2021/06/24 22:16:22;;;;;;;;;46.75;41.50;;;;;;;;8874691;40;10627;-62
2021/06/24 22:22:24;;;;;;;;;43.50;39.25;;;;;;;;8874630;40;10653;-60
2021/06/24 22:28:26;;;;;;;;;47.75;40.50;;;;;;;;8875458;40;10605;-61
2021/06/24 22:34:28;;;;;;;;;47.00;41.75;;;;;;;;8874337;40;10528;-61
2021/06/24 22:40:30;;;;;;;;;44.25;41.50;;;;;;;;8895747;40;10662;-60
2021/06/24 22:46:33;;;;;;;;;33.50;33.00;;;;;;;;8899250;40;10520;-62
2021/06/24 22:52:35;;;;;;;;;46.50;39.00;;;;;;;;8897306;40;11115;-61
2021/06/24 22:58:37;;;;;;;;;42.75;37.00;;;;;;;;8875049;40;10528;-60
2021/06/24 23:04:38;;;;;;;;;36.00;34.00;;;;;;;;8873803;40;11145;-61
2021/06/24 23:10:40;;;;;;;;;36.00;36.00;;;;;;;;8876753;40;10412;-62
2021/06/24 23:16:42;;;;;;;;;35.50;33.50;;;;;;;;8898116;40;10637;-61
2021/06/24 23:22:44;;;;;;;;;45.25;37.75;;;;;;;;8899521;40;10549;-61
2021/06/24 23:28:46;;;;;;;;;34.25;32.00;;;;;;;;8896942;40;10480;-61
2021/06/24 23:34:48;;;;;;;;;42.25;41.00;;;;;;;;8899252;40;10907;-60
2021/06/24 23:40:50;;;;;;;;;39.25;35.75;;;;;;;;8899190;40;10822;-62
2021/06/24 23:46:52;;;;;;;;;37.50;36.25;;;;;;;;8898033;40;10844;-61
2021/06/24 23:52:54;;;;;;;;;37.50;32.50;;;;;;;;8899990;40;10628;-60
2021/06/24 23:58:56;;;;;;;;;40.75;36.75;;;;;;;;8902799;40;10703;-60
